sensor_id;sensor_type;location;lat;lon;timestamp;P1;durP1;ratioP1;P2;durP2;ratioP2
59042;SDS011;44826;51.596;5.624;2022-09-09T00:00:25;1.52;;;0.85;;
59042;SDS011;44826;51.596;5.624;2022-09-09T00:05:26;1.77;;;0.80;;
59042;SDS011;44826;51.596;5.624;2022-09-09T00:07:58;0.70;;;0.60;;
59042;SDS011;44826;51.596;5.624;2022-09-09T00:13:00;1.13;;;0.70;;
59042;SDS011;44826;51.596;5.624;2022-09-09T00:15:33;1.73;;;0.70;;
59042;SDS011;44826;51.596;5.624;2022-09-09T00:20:56;1.23;;;0.70;;
59042;SDS011;44826;51.596;5.624;2022-09-09T00:23:29;1.30;;;0.70;;
59042;SDS011;44826;51.596;5.624;2022-09-09T00:26:05;2.85;;;0.80;;
59042;SDS011;44826;51.596;5.624;2022-09-09T00:28:39;1.80;;;0.75;;
59042;SDS011;44826;51.596;5.624;2022-09-09T00:31:12;1.52;;;0.70;;
59042;SDS011;44826;51.596;5.624;2022-09-09T00:33:41;2.78;;;0.82;;
59042;SDS011;44826;51.596;5.624;2022-09-09T00:36:18;2.10;;;0.80;;
59042;SDS011;44826;51.596;5.624;2022-09-09T00:38:51;2.95;;;0.70;;
59042;SDS011;44826;51.596;5.624;2022-09-09T00:44:31;1.50;;;0.82;;
59042;SDS011;44826;51.596;5.624;2022-09-09T00:47:07;1.38;;;0.70;;
59042;SDS011;44826;51.596;5.624;2022-09-09T00:52:45;1.45;;;0.80;;
59042;SDS011;44826;51.596;5.624;2022-09-09T00:58:12;3.13;;;0.88;;
59042;SDS011;44826;51.596;5.624;2022-09-09T01:06:00;1.58;;;0.75;;
59042;SDS011;44826;51.596;5.624;2022-09-09T01:11:10;2.00;;;0.85;;
59042;SDS011;44826;51.596;5.624;2022-09-09T01:13:45;1.63;;;0.77;;
59042;SDS011;44826;51.596;5.624;2022-09-09T01:16:12;3.53;;;0.80;;
59042;SDS011;44826;51.596;5.624;2022-09-09T01:18:40;1.80;;;0.80;;
59042;SDS011;44826;51.596;5.624;2022-09-09T01:21:21;1.88;;;0.70;;
59042;SDS011;44826;51.596;5.624;2022-09-09T01:24:31;2.45;;;0.68;;
59042;SDS011;44826;51.596;5.624;2022-09-09T01:27:05;2.53;;;0.70;;
59042;SDS011;44826;51.596;5.624;2022-09-09T01:29:32;1.55;;;0.80;;
59042;SDS011;44826;51.596;5.624;2022-09-09T01:32:45;1.88;;;0.80;;
59042;SDS011;44826;51.596;5.624;2022-09-09T01:35:02;1.58;;;0.80;;
59042;SDS011;44826;51.596;5.624;2022-09-09T01:37:28;1.02;;;0.70;;
59042;SDS011;44826;51.596;5.624;2022-09-09T01:39:53;2.45;;;0.80;;
59042;SDS011;44826;51.596;5.624;2022-09-09T01:42:19;2.15;;;1.05;;
59042;SDS011;44826;51.596;5.624;2022-09-09T01:44:44;1.45;;;0.70;;
59042;SDS011;44826;51.596;5.624;2022-09-09T01:47:09;2.40;;;0.90;;
59042;SDS011;44826;51.596;5.624;2022-09-09T01:49:35;3.17;;;1.00;;
59042;SDS011;44826;51.596;5.624;2022-09-09T01:52:00;2.88;;;1.00;;
59042;SDS011;44826;51.596;5.624;2022-09-09T01:54:27;2.00;;;1.20;;
59042;SDS011;44826;51.596;5.624;2022-09-09T01:57:11;2.90;;;0.90;;
59042;SDS011;44826;51.596;5.624;2022-09-09T02:02:40;2.75;;;1.00;;
59042;SDS011;44826;51.596;5.624;2022-09-09T02:08:06;3.60;;;0.70;;
59042;SDS011;44826;51.596;5.624;2022-09-09T02:10:39;4.70;;;1.00;;
59042;SDS011;44826;51.596;5.624;2022-09-09T02:13:11;2.35;;;1.10;;
59042;SDS011;44826;51.596;5.624;2022-09-09T02:15:42;2.65;;;1.00;;
59042;SDS011;44826;51.596;5.624;2022-09-09T02:18:30;2.33;;;1.20;;
59042;SDS011;44826;51.596;5.624;2022-09-09T02:21:00;3.42;;;1.10;;
59042;SDS011;44826;51.596;5.624;2022-09-09T02:23:28;1.90;;;0.95;;
59042;SDS011;44826;51.596;5.624;2022-09-09T02:25:54;3.05;;;1.20;;
59042;SDS011;44826;51.596;5.624;2022-09-09T02:28:22;1.42;;;0.90;;
59042;SDS011;44826;51.596;5.624;2022-09-09T02:30:50;3.00;;;1.10;;
59042;SDS011;44826;51.596;5.624;2022-09-09T02:33:20;2.40;;;1.00;;
59042;SDS011;44826;51.596;5.624;2022-09-09T02:35:50;3.20;;;1.00;;
59042;SDS011;44826;51.596;5.624;2022-09-09T02:38:17;2.97;;;1.23;;
59042;SDS011;44826;51.596;5.624;2022-09-09T02:40:46;1.83;;;1.00;;
59042;SDS011;44826;51.596;5.624;2022-09-09T02:43:13;3.13;;;1.00;;
59042;SDS011;44826;51.596;5.624;2022-09-09T02:45:48;2.83;;;1.20;;
59042;SDS011;44826;51.596;5.624;2022-09-09T02:53:47;2.28;;;1.20;;
59042;SDS011;44826;51.596;5.624;2022-09-09T02:56:24;3.30;;;1.20;;
59042;SDS011;44826;51.596;5.624;2022-09-09T02:58:53;1.80;;;0.93;;
59042;SDS011;44826;51.596;5.624;2022-09-09T03:01:19;3.10;;;1.08;;
59042;SDS011;44826;51.596;5.624;2022-09-09T03:03:45;2.42;;;1.30;;
59042;SDS011;44826;51.596;5.624;2022-09-09T03:06:11;2.58;;;1.20;;
59042;SDS011;44826;51.596;5.624;2022-09-09T03:08:37;4.75;;;1.48;;
59042;SDS011;44826;51.596;5.624;2022-09-09T03:11:02;1.85;;;1.27;;
59042;SDS011;44826;51.596;5.624;2022-09-09T03:13:27;3.30;;;1.38;;
59042;SDS011;44826;51.596;5.624;2022-09-09T03:15:53;3.00;;;1.38;;
59042;SDS011;44826;51.596;5.624;2022-09-09T03:18:18;2.00;;;1.17;;
59042;SDS011;44826;51.596;5.624;2022-09-09T03:20:44;3.38;;;1.30;;
59042;SDS011;44826;51.596;5.624;2022-09-09T03:23:13;3.15;;;1.20;;
59042;SDS011;44826;51.596;5.624;2022-09-09T03:25:38;6.00;;;1.00;;
59042;SDS011;44826;51.596;5.624;2022-09-09T03:28:04;2.20;;;1.10;;
59042;SDS011;44826;51.596;5.624;2022-09-09T03:30:29;3.22;;;1.13;;
59042;SDS011;44826;51.596;5.624;2022-09-09T03:32:55;2.55;;;1.27;;
59042;SDS011;44826;51.596;5.624;2022-09-09T03:35:20;2.38;;;1.15;;
59042;SDS011;44826;51.596;5.624;2022-09-09T03:37:46;4.47;;;1.20;;
59042;SDS011;44826;51.596;5.624;2022-09-09T03:40:12;1.80;;;1.20;;
59042;SDS011;44826;51.596;5.624;2022-09-09T03:42:38;6.03;;;1.10;;
59042;SDS011;44826;51.596;5.624;2022-09-09T03:45:04;5.05;;;1.30;;
59042;SDS011;44826;51.596;5.624;2022-09-09T03:47:31;4.25;;;1.20;;
59042;SDS011;44826;51.596;5.624;2022-09-09T03:49:56;5.70;;;1.20;;
59042;SDS011;44826;51.596;5.624;2022-09-09T03:52:22;3.42;;;1.15;;
59042;SDS011;44826;51.596;5.624;2022-09-09T03:54:50;3.22;;;1.08;;
59042;SDS011;44826;51.596;5.624;2022-09-09T03:57:16;3.72;;;1.30;;
59042;SDS011;44826;51.596;5.624;2022-09-09T03:59:42;4.60;;;1.50;;
59042;SDS011;44826;51.596;5.624;2022-09-09T04:02:07;4.32;;;1.25;;
59042;SDS011;44826;51.596;5.624;2022-09-09T04:04:33;1.75;;;0.98;;
59042;SDS011;44826;51.596;5.624;2022-09-09T04:06:58;3.25;;;1.10;;
59042;SDS011;44826;51.596;5.624;2022-09-09T04:09:23;2.15;;;1.10;;
59042;SDS011;44826;51.596;5.624;2022-09-09T04:11:49;3.90;;;1.00;;
59042;SDS011;44826;51.596;5.624;2022-09-09T04:14:14;4.00;;;1.27;;
59042;SDS011;44826;51.596;5.624;2022-09-09T04:16:39;2.35;;;1.05;;
59042;SDS011;44826;51.596;5.624;2022-09-09T04:19:09;1.88;;;1.17;;
59042;SDS011;44826;51.596;5.624;2022-09-09T04:21:37;4.13;;;1.10;;
59042;SDS011;44826;51.596;5.624;2022-09-09T04:24:04;4.35;;;1.27;;
59042;SDS011;44826;51.596;5.624;2022-09-09T04:26:30;3.35;;;1.13;;
59042;SDS011;44826;51.596;5.624;2022-09-09T04:28:55;2.72;;;1.17;;
59042;SDS011;44826;51.596;5.624;2022-09-09T04:31:21;4.07;;;1.30;;
59042;SDS011;44826;51.596;5.624;2022-09-09T04:33:48;4.28;;;1.23;;
59042;SDS011;44826;51.596;5.624;2022-09-09T04:36:15;2.65;;;1.23;;
59042;SDS011;44826;51.596;5.624;2022-09-09T04:38:40;3.08;;;1.30;;
59042;SDS011;44826;51.596;5.624;2022-09-09T04:41:06;3.15;;;1.48;;
59042;SDS011;44826;51.596;5.624;2022-09-09T04:43:32;2.78;;;1.23;;
59042;SDS011;44826;51.596;5.624;2022-09-09T04:45:57;7.18;;;1.40;;
59042;SDS011;44826;51.596;5.624;2022-09-09T04:48:24;3.55;;;1.55;;
59042;SDS011;44826;51.596;5.624;2022-09-09T04:51:00;3.95;;;1.30;;
59042;SDS011;44826;51.596;5.624;2022-09-09T04:53:30;2.80;;;1.40;;
59042;SDS011;44826;51.596;5.624;2022-09-09T04:56:02;4.80;;;1.42;;
59042;SDS011;44826;51.596;5.624;2022-09-09T04:58:32;4.40;;;1.30;;
59042;SDS011;44826;51.596;5.624;2022-09-09T05:01:05;4.45;;;1.55;;
59042;SDS011;44826;51.596;5.624;2022-09-09T05:03:38;3.20;;;1.60;;
59042;SDS011;44826;51.596;5.624;2022-09-09T05:06:04;3.85;;;1.45;;
59042;SDS011;44826;51.596;5.624;2022-09-09T05:08:33;3.60;;;1.58;;
59042;SDS011;44826;51.596;5.624;2022-09-09T05:10:58;3.50;;;1.30;;
59042;SDS011;44826;51.596;5.624;2022-09-09T05:13:24;4.60;;;1.25;;
59042;SDS011;44826;51.596;5.624;2022-09-09T05:15:52;6.05;;;1.50;;
59042;SDS011;44826;51.596;5.624;2022-09-09T05:18:18;6.22;;;1.63;;
59042;SDS011;44826;51.596;5.624;2022-09-09T05:20:43;6.00;;;1.42;;
59042;SDS011;44826;51.596;5.624;2022-09-09T05:23:08;5.70;;;1.67;;
59042;SDS011;44826;51.596;5.624;2022-09-09T05:25:36;3.50;;;1.35;;
59042;SDS011;44826;51.596;5.624;2022-09-09T05:28:01;4.20;;;1.42;;
59042;SDS011;44826;51.596;5.624;2022-09-09T05:30:26;6.28;;;1.80;;
59042;SDS011;44826;51.596;5.624;2022-09-09T05:32:52;2.58;;;1.42;;
59042;SDS011;44826;51.596;5.624;2022-09-09T05:35:17;4.43;;;1.50;;
59042;SDS011;44826;51.596;5.624;2022-09-09T05:37:44;7.00;;;1.60;;
59042;SDS011;44826;51.596;5.624;2022-09-09T05:40:11;2.95;;;1.23;;
59042;SDS011;44826;51.596;5.624;2022-09-09T05:42:37;4.07;;;1.17;;
59042;SDS011;44826;51.596;5.624;2022-09-09T05:45:04;4.22;;;1.23;;
59042;SDS011;44826;51.596;5.624;2022-09-09T05:47:29;3.08;;;1.45;;
59042;SDS011;44826;51.596;5.624;2022-09-09T05:49:55;4.30;;;1.52;;
59042;SDS011;44826;51.596;5.624;2022-09-09T05:52:20;4.38;;;1.42;;
59042;SDS011;44826;51.596;5.624;2022-09-09T05:54:45;8.20;;;1.73;;
59042;SDS011;44826;51.596;5.624;2022-09-09T05:57:11;5.38;;;1.65;;
59042;SDS011;44826;51.596;5.624;2022-09-09T05:59:36;9.38;;;1.50;;
59042;SDS011;44826;51.596;5.624;2022-09-09T06:02:02;2.90;;;1.20;;
59042;SDS011;44826;51.596;5.624;2022-09-09T06:04:27;3.95;;;1.25;;
59042;SDS011;44826;51.596;5.624;2022-09-09T06:06:52;4.47;;;1.10;;
59042;SDS011;44826;51.596;5.624;2022-09-09T06:09:18;4.40;;;1.15;;
59042;SDS011;44826;51.596;5.624;2022-09-09T06:11:43;2.17;;;1.02;;
59042;SDS011;44826;51.596;5.624;2022-09-09T06:14:08;3.85;;;1.30;;
59042;SDS011;44826;51.596;5.624;2022-09-09T06:16:34;4.13;;;1.20;;
59042;SDS011;44826;51.596;5.624;2022-09-09T06:19:00;2.75;;;1.02;;
59042;SDS011;44826;51.596;5.624;2022-09-09T06:21:29;3.47;;;1.20;;
59042;SDS011;44826;51.596;5.624;2022-09-09T06:23:56;4.68;;;1.23;;
59042;SDS011;44826;51.596;5.624;2022-09-09T06:26:25;5.53;;;1.50;;
59042;SDS011;44826;51.596;5.624;2022-09-09T06:28:55;4.43;;;1.40;;
59042;SDS011;44826;51.596;5.624;2022-09-09T06:31:23;4.32;;;1.40;;
59042;SDS011;44826;51.596;5.624;2022-09-09T06:33:51;7.57;;;1.52;;
59042;SDS011;44826;51.596;5.624;2022-09-09T06:36:18;3.85;;;1.30;;
59042;SDS011;44826;51.596;5.624;2022-09-09T06:38:45;3.78;;;1.30;;
59042;SDS011;44826;51.596;5.624;2022-09-09T06:41:12;6.38;;;1.20;;
59042;SDS011;44826;51.596;5.624;2022-09-09T06:43:38;6.47;;;1.58;;
59042;SDS011;44826;51.596;5.624;2022-09-09T06:46:08;8.75;;;1.80;;
59042;SDS011;44826;51.596;5.624;2022-09-09T06:48:36;5.07;;;1.40;;
59042;SDS011;44826;51.596;5.624;2022-09-09T06:51:02;4.45;;;1.58;;
59042;SDS011;44826;51.596;5.624;2022-09-09T06:53:47;4.18;;;1.23;;
59042;SDS011;44826;51.596;5.624;2022-09-09T06:56:19;6.82;;;1.60;;
59042;SDS011;44826;51.596;5.624;2022-09-09T06:58:53;4.25;;;1.42;;
59042;SDS011;44826;51.596;5.624;2022-09-09T07:01:20;4.65;;;1.38;;
59042;SDS011;44826;51.596;5.624;2022-09-09T07:03:57;6.05;;;1.50;;
59042;SDS011;44826;51.596;5.624;2022-09-09T07:06:30;5.22;;;1.65;;
59042;SDS011;44826;51.596;5.624;2022-09-09T07:08:58;3.65;;;1.50;;
59042;SDS011;44826;51.596;5.624;2022-09-09T07:11:26;3.28;;;1.30;;
59042;SDS011;44826;51.596;5.624;2022-09-09T07:13:53;5.93;;;1.90;;
59042;SDS011;44826;51.596;5.624;2022-09-09T07:16:20;4.57;;;2.20;;
59042;SDS011;44826;51.596;5.624;2022-09-09T07:18:49;5.10;;;1.70;;
59042;SDS011;44826;51.596;5.624;2022-09-09T07:21:15;7.50;;;1.67;;
59042;SDS011;44826;51.596;5.624;2022-09-09T07:23:42;10.35;;;2.30;;
59042;SDS011;44826;51.596;5.624;2022-09-09T07:26:09;7.43;;;1.80;;
59042;SDS011;44826;51.596;5.624;2022-09-09T07:28:45;6.10;;;1.85;;
59042;SDS011;44826;51.596;5.624;2022-09-09T07:31:15;6.63;;;1.90;;
59042;SDS011;44826;51.596;5.624;2022-09-09T07:33:42;6.38;;;1.70;;
59042;SDS011;44826;51.596;5.624;2022-09-09T07:36:09;7.47;;;1.70;;
59042;SDS011;44826;51.596;5.624;2022-09-09T07:38:39;5.15;;;1.60;;
59042;SDS011;44826;51.596;5.624;2022-09-09T07:41:05;6.78;;;1.75;;
59042;SDS011;44826;51.596;5.624;2022-09-09T07:43:36;7.00;;;1.58;;
59042;SDS011;44826;51.596;5.624;2022-09-09T07:46:02;5.85;;;1.60;;
59042;SDS011;44826;51.596;5.624;2022-09-09T07:48:27;6.80;;;1.63;;
59042;SDS011;44826;51.596;5.624;2022-09-09T07:51:02;3.42;;;1.30;;
59042;SDS011;44826;51.596;5.624;2022-09-09T07:53:39;5.20;;;1.40;;
59042;SDS011;44826;51.596;5.624;2022-09-09T07:56:06;5.95;;;1.52;;
59042;SDS011;44826;51.596;5.624;2022-09-09T07:58:34;6.07;;;1.67;;
59042;SDS011;44826;51.596;5.624;2022-09-09T08:01:00;4.82;;;1.50;;
59042;SDS011;44826;51.596;5.624;2022-09-09T08:03:25;5.20;;;1.30;;
59042;SDS011;44826;51.596;5.624;2022-09-09T08:05:50;3.22;;;1.10;;
59042;SDS011;44826;51.596;5.624;2022-09-09T08:08:16;5.57;;;1.50;;
59042;SDS011;44826;51.596;5.624;2022-09-09T08:10:41;4.55;;;1.15;;
59042;SDS011;44826;51.596;5.624;2022-09-09T08:13:08;6.50;;;1.30;;
59042;SDS011;44826;51.596;5.624;2022-09-09T08:15:33;3.97;;;1.10;;
59042;SDS011;44826;51.596;5.624;2022-09-09T08:17:59;4.72;;;1.75;;
59042;SDS011;44826;51.596;5.624;2022-09-09T08:20:24;7.00;;;1.40;;
59042;SDS011;44826;51.596;5.624;2022-09-09T08:22:50;6.10;;;1.40;;
59042;SDS011;44826;51.596;5.624;2022-09-09T08:25:15;5.57;;;1.40;;
59042;SDS011;44826;51.596;5.624;2022-09-09T08:27:40;4.25;;;1.20;;
59042;SDS011;44826;51.596;5.624;2022-09-09T08:30:06;2.92;;;1.10;;
59042;SDS011;44826;51.596;5.624;2022-09-09T08:32:32;4.80;;;1.30;;
59042;SDS011;44826;51.596;5.624;2022-09-09T08:34:57;10.05;;;1.40;;
59042;SDS011;44826;51.596;5.624;2022-09-09T08:37:22;5.18;;;1.38;;
59042;SDS011;44826;51.596;5.624;2022-09-09T08:39:48;5.65;;;1.30;;
59042;SDS011;44826;51.596;5.624;2022-09-09T08:55:37;6.65;;;1.17;;
59042;SDS011;44826;51.596;5.624;2022-09-09T08:58:31;5.25;;;1.42;;
59042;SDS011;44826;51.596;5.624;2022-09-09T09:03:42;5.68;;;1.15;;
59042;SDS011;44826;51.596;5.624;2022-09-09T09:12:10;4.30;;;1.10;;
59042;SDS011;44826;51.596;5.624;2022-09-09T09:14:41;5.57;;;1.40;;
59042;SDS011;44826;51.596;5.624;2022-09-09T09:17:12;4.93;;;1.20;;
59042;SDS011;44826;51.596;5.624;2022-09-09T09:19:40;4.15;;;1.20;;
59042;SDS011;44826;51.596;5.624;2022-09-09T09:24:53;4.88;;;1.25;;
59042;SDS011;44826;51.596;5.624;2022-09-09T09:30:42;5.68;;;1.30;;
59042;SDS011;44826;51.596;5.624;2022-09-09T09:36:14;5.75;;;1.20;;
59042;SDS011;44826;51.596;5.624;2022-09-09T09:38:51;3.67;;;1.20;;
59042;SDS011;44826;51.596;5.624;2022-09-09T09:41:33;5.88;;;1.48;;
59042;SDS011;44826;51.596;5.624;2022-09-09T09:44:01;4.40;;;1.10;;
59042;SDS011;44826;51.596;5.624;2022-09-09T09:46:27;8.00;;;1.20;;
59042;SDS011;44826;51.596;5.624;2022-09-09T09:48:59;6.63;;;1.38;;
59042;SDS011;44826;51.596;5.624;2022-09-09T09:51:26;7.75;;;1.30;;
59042;SDS011;44826;51.596;5.624;2022-09-09T09:53:54;4.50;;;0.93;;
59042;SDS011;44826;51.596;5.624;2022-09-09T09:56:30;4.45;;;1.10;;
59042;SDS011;44826;51.596;5.624;2022-09-09T09:58:57;6.57;;;1.10;;
59042;SDS011;44826;51.596;5.624;2022-09-09T10:01:24;3.75;;;1.10;;
59042;SDS011;44826;51.596;5.624;2022-09-09T10:03:53;7.10;;;1.35;;
59042;SDS011;44826;51.596;5.624;2022-09-09T10:06:34;5.22;;;1.13;;
59042;SDS011;44826;51.596;5.624;2022-09-09T10:09:03;6.53;;;1.42;;
59042;SDS011;44826;51.596;5.624;2022-09-09T10:19:29;6.00;;;1.30;;
59042;SDS011;44826;51.596;5.624;2022-09-09T10:22:01;6.15;;;1.20;;
59042;SDS011;44826;51.596;5.624;2022-09-09T10:24:40;6.07;;;1.40;;
59042;SDS011;44826;51.596;5.624;2022-09-09T10:30:18;5.53;;;1.20;;
59042;SDS011;44826;51.596;5.624;2022-09-09T10:33:00;6.85;;;1.30;;
59042;SDS011;44826;51.596;5.624;2022-09-09T10:35:35;6.38;;;1.27;;
59042;SDS011;44826;51.596;5.624;2022-09-09T10:38:16;5.95;;;1.25;;
59042;SDS011;44826;51.596;5.624;2022-09-09T10:41:16;4.63;;;1.00;;
59042;SDS011;44826;51.596;5.624;2022-09-09T10:57:50;5.68;;;1.38;;
59042;SDS011;44826;51.596;5.624;2022-09-09T11:00:04;6.07;;;1.42;;
59042;SDS011;44826;51.596;5.624;2022-09-09T11:05:08;3.80;;;1.45;;
59042;SDS011;44826;51.596;5.624;2022-09-09T11:07:48;6.07;;;1.55;;
59042;SDS011;44826;51.596;5.624;2022-09-09T11:10:34;5.80;;;1.40;;
59042;SDS011;44826;51.596;5.624;2022-09-09T11:13:03;5.13;;;1.27;;
59042;SDS011;44826;51.596;5.624;2022-09-09T11:15:46;3.90;;;1.20;;
59042;SDS011;44826;51.596;5.624;2022-09-09T11:18:19;3.95;;;1.20;;
59042;SDS011;44826;51.596;5.624;2022-09-09T11:20:47;5.80;;;1.45;;
59042;SDS011;44826;51.596;5.624;2022-09-09T11:23:27;3.50;;;1.20;;
59042;SDS011;44826;51.596;5.624;2022-09-09T11:26:11;2.63;;;1.10;;
59042;SDS011;44826;51.596;5.624;2022-09-09T11:28:51;4.15;;;1.48;;
59042;SDS011;44826;51.596;5.624;2022-09-09T11:31:41;4.13;;;1.20;;
59042;SDS011;44826;51.596;5.624;2022-09-09T11:34:27;3.83;;;1.33;;
59042;SDS011;44826;51.596;5.624;2022-09-09T11:37:22;3.88;;;1.10;;
59042;SDS011;44826;51.596;5.624;2022-09-09T11:42:48;3.22;;;0.98;;
59042;SDS011;44826;51.596;5.624;2022-09-09T11:45:23;2.97;;;1.08;;
59042;SDS011;44826;51.596;5.624;2022-09-09T11:48:01;2.38;;;1.20;;
59042;SDS011;44826;51.596;5.624;2022-09-09T11:50:35;3.05;;;1.20;;
59042;SDS011;44826;51.596;5.624;2022-09-09T11:53:21;4.15;;;1.10;;
59042;SDS011;44826;51.596;5.624;2022-09-09T11:55:48;5.20;;;1.63;;
59042;SDS011;44826;51.596;5.624;2022-09-09T11:58:26;3.35;;;1.38;;
59042;SDS011;44826;51.596;5.624;2022-09-09T12:00:57;3.85;;;1.45;;
59042;SDS011;44826;51.596;5.624;2022-09-09T12:03:43;3.13;;;1.35;;
59042;SDS011;44826;51.596;5.624;2022-09-09T12:08:52;2.17;;;1.30;;
59042;SDS011;44826;51.596;5.624;2022-09-09T12:11:23;2.90;;;1.38;;
59042;SDS011;44826;51.596;5.624;2022-09-09T12:13:54;3.15;;;1.25;;
59042;SDS011;44826;51.596;5.624;2022-09-09T12:16:27;4.10;;;1.27;;
59042;SDS011;44826;51.596;5.624;2022-09-09T12:19:02;3.65;;;1.40;;
59042;SDS011;44826;51.596;5.624;2022-09-09T12:30:16;4.65;;;1.58;;
59042;SDS011;44826;51.596;5.624;2022-09-09T12:32:42;3.63;;;1.35;;
59042;SDS011;44826;51.596;5.624;2022-09-09T12:37:47;4.60;;;1.50;;
59042;SDS011;44826;51.596;5.624;2022-09-09T12:40:31;5.47;;;1.63;;
59042;SDS011;44826;51.596;5.624;2022-09-09T12:43:00;4.80;;;1.70;;
59042;SDS011;44826;51.596;5.624;2022-09-09T12:45:28;3.83;;;1.70;;
59042;SDS011;44826;51.596;5.624;2022-09-09T12:50:29;6.53;;;1.70;;
59042;SDS011;44826;51.596;5.624;2022-09-09T12:52:57;4.05;;;1.45;;
59042;SDS011;44826;51.596;5.624;2022-09-09T12:55:31;5.47;;;1.70;;
59042;SDS011;44826;51.596;5.624;2022-09-09T12:58:00;4.13;;;1.60;;
59042;SDS011;44826;51.596;5.624;2022-09-09T13:00:30;2.65;;;1.20;;
59042;SDS011;44826;51.596;5.624;2022-09-09T13:02:59;2.90;;;1.35;;
59042;SDS011;44826;51.596;5.624;2022-09-09T13:05:36;3.15;;;1.17;;
59042;SDS011;44826;51.596;5.624;2022-09-09T13:08:04;4.32;;;1.30;;
59042;SDS011;44826;51.596;5.624;2022-09-09T13:10:33;4.32;;;1.38;;
59042;SDS011;44826;51.596;5.624;2022-09-09T13:13:03;3.47;;;1.17;;
59042;SDS011;44826;51.596;5.624;2022-09-09T13:15:29;5.28;;;1.30;;
59042;SDS011;44826;51.596;5.624;2022-09-09T13:17:56;5.00;;;1.30;;
59042;SDS011;44826;51.596;5.624;2022-09-09T13:20:25;4.72;;;1.42;;
59042;SDS011;44826;51.596;5.624;2022-09-09T13:22:52;4.22;;;1.30;;
59042;SDS011;44826;51.596;5.624;2022-09-09T13:25:21;4.90;;;1.40;;
59042;SDS011;44826;51.596;5.624;2022-09-09T13:27:54;6.38;;;1.83;;
59042;SDS011;44826;51.596;5.624;2022-09-09T13:35:47;4.57;;;1.30;;
59042;SDS011;44826;51.596;5.624;2022-09-09T13:38:19;4.38;;;1.20;;
59042;SDS011;44826;51.596;5.624;2022-09-09T13:41:06;6.85;;;1.35;;
59042;SDS011;44826;51.596;5.624;2022-09-09T13:43:34;3.58;;;1.40;;
59042;SDS011;44826;51.596;5.624;2022-09-09T13:46:03;4.77;;;1.30;;
59042;SDS011;44826;51.596;5.624;2022-09-09T13:48:53;4.00;;;1.30;;
59042;SDS011;44826;51.596;5.624;2022-09-09T13:51:39;3.20;;;1.30;;
59042;SDS011;44826;51.596;5.624;2022-09-09T13:54:10;3.13;;;1.00;;
59042;SDS011;44826;51.596;5.624;2022-09-09T13:56:37;5.88;;;1.30;;
59042;SDS011;44826;51.596;5.624;2022-09-09T13:59:04;3.10;;;1.00;;
59042;SDS011;44826;51.596;5.624;2022-09-09T14:01:30;5.57;;;1.20;;
59042;SDS011;44826;51.596;5.624;2022-09-09T14:03:56;4.45;;;1.30;;
59042;SDS011;44826;51.596;5.624;2022-09-09T14:06:21;3.35;;;1.10;;
59042;SDS011;44826;51.596;5.624;2022-09-09T14:08:47;2.33;;;1.00;;
59042;SDS011;44826;51.596;5.624;2022-09-09T14:11:15;2.78;;;1.00;;
59042;SDS011;44826;51.596;5.624;2022-09-09T14:13:41;2.80;;;0.90;;
59042;SDS011;44826;51.596;5.624;2022-09-09T14:16:06;4.07;;;1.00;;
59042;SDS011;44826;51.596;5.624;2022-09-09T14:18:31;3.10;;;0.90;;
59042;SDS011;44826;51.596;5.624;2022-09-09T14:20:57;3.33;;;1.20;;
59042;SDS011;44826;51.596;5.624;2022-09-09T14:23:23;3.72;;;0.93;;
59042;SDS011;44826;51.596;5.624;2022-09-09T14:25:49;2.75;;;1.00;;
59042;SDS011;44826;51.596;5.624;2022-09-09T14:28:14;3.38;;;1.20;;
59042;SDS011;44826;51.596;5.624;2022-09-09T14:30:41;3.03;;;0.90;;
59042;SDS011;44826;51.596;5.624;2022-09-09T14:33:09;3.60;;;1.00;;
59042;SDS011;44826;51.596;5.624;2022-09-09T14:35:38;4.28;;;0.98;;
59042;SDS011;44826;51.596;5.624;2022-09-09T14:38:06;3.10;;;0.90;;
59042;SDS011;44826;51.596;5.624;2022-09-09T14:40:31;3.47;;;1.20;;
59042;SDS011;44826;51.596;5.624;2022-09-09T14:42:59;3.13;;;1.00;;
59042;SDS011;44826;51.596;5.624;2022-09-09T14:45:25;2.63;;;1.00;;
59042;SDS011;44826;51.596;5.624;2022-09-09T14:47:51;2.92;;;1.00;;
59042;SDS011;44826;51.596;5.624;2022-09-09T14:50:17;2.40;;;1.05;;
59042;SDS011;44826;51.596;5.624;2022-09-09T14:52:42;2.83;;;0.80;;
59042;SDS011;44826;51.596;5.624;2022-09-09T14:55:08;2.55;;;0.93;;
59042;SDS011;44826;51.596;5.624;2022-09-09T14:57:33;3.80;;;0.88;;
59042;SDS011;44826;51.596;5.624;2022-09-09T15:00:00;2.67;;;0.90;;
59042;SDS011;44826;51.596;5.624;2022-09-09T15:02:25;2.55;;;0.90;;
59042;SDS011;44826;51.596;5.624;2022-09-09T15:04:51;3.85;;;0.85;;
59042;SDS011;44826;51.596;5.624;2022-09-09T15:07:17;3.55;;;0.90;;
59042;SDS011;44826;51.596;5.624;2022-09-09T15:09:44;3.72;;;0.80;;
59042;SDS011;44826;51.596;5.624;2022-09-09T15:12:09;3.13;;;0.90;;
59042;SDS011;44826;51.596;5.624;2022-09-09T15:14:35;2.72;;;0.80;;
59042;SDS011;44826;51.596;5.624;2022-09-09T15:17:00;2.50;;;0.88;;
59042;SDS011;44826;51.596;5.624;2022-09-09T15:19:26;2.70;;;1.00;;
59042;SDS011;44826;51.596;5.624;2022-09-09T15:21:51;5.43;;;0.75;;
59042;SDS011;44826;51.596;5.624;2022-09-09T15:24:16;2.15;;;0.90;;
59042;SDS011;44826;51.596;5.624;2022-09-09T15:26:42;4.43;;;0.80;;
59042;SDS011;44826;51.596;5.624;2022-09-09T15:29:07;2.72;;;0.82;;
59042;SDS011;44826;51.596;5.624;2022-09-09T15:31:33;2.10;;;0.90;;
59042;SDS011;44826;51.596;5.624;2022-09-09T15:36:32;2.75;;;0.60;;
59042;SDS011;44826;51.596;5.624;2022-09-09T15:38:58;2.53;;;0.60;;
59042;SDS011;44826;51.596;5.624;2022-09-09T15:41:25;3.00;;;0.50;;
59042;SDS011;44826;51.596;5.624;2022-09-09T15:43:52;1.55;;;0.30;;
59042;SDS011;44826;51.596;5.624;2022-09-09T15:48:49;0.63;;;0.20;;
59042;SDS011;44826;51.596;5.624;2022-09-09T15:51:15;1.63;;;0.40;;
59042;SDS011;44826;51.596;5.624;2022-09-09T15:53:41;1.70;;;0.45;;
59042;SDS011;44826;51.596;5.624;2022-09-09T15:56:06;1.05;;;0.50;;
59042;SDS011;44826;51.596;5.624;2022-09-09T15:58:32;1.75;;;0.40;;
59042;SDS011;44826;51.596;5.624;2022-09-09T16:01:07;1.58;;;0.40;;
59042;SDS011;44826;51.596;5.624;2022-09-09T16:03:37;1.27;;;0.35;;
59042;SDS011;44826;51.596;5.624;2022-09-09T16:06:04;2.22;;;0.50;;
59042;SDS011;44826;51.596;5.624;2022-09-09T16:08:34;0.65;;;0.40;;
59042;SDS011;44826;51.596;5.624;2022-09-09T16:11:04;2.35;;;0.50;;
59042;SDS011;44826;51.596;5.624;2022-09-09T16:13:32;2.65;;;0.50;;
59042;SDS011;44826;51.596;5.624;2022-09-09T16:15:58;1.02;;;0.40;;
59042;SDS011;44826;51.596;5.624;2022-09-09T16:18:24;4.43;;;0.50;;
59042;SDS011;44826;51.596;5.624;2022-09-09T16:20:55;2.05;;;0.60;;
59042;SDS011;44826;51.596;5.624;2022-09-09T16:23:20;1.50;;;0.40;;
59042;SDS011;44826;51.596;5.624;2022-09-09T16:25:55;2.10;;;0.43;;
59042;SDS011;44826;51.596;5.624;2022-09-09T16:28:20;0.98;;;0.47;;
59042;SDS011;44826;51.596;5.624;2022-09-09T16:30:46;1.23;;;0.77;;
59042;SDS011;44826;51.596;5.624;2022-09-09T16:33:11;5.03;;;1.08;;
59042;SDS011;44826;51.596;5.624;2022-09-09T16:35:39;3.67;;;0.60;;
59042;SDS011;44826;51.596;5.624;2022-09-09T16:38:05;5.05;;;0.80;;
59042;SDS011;44826;51.596;5.624;2022-09-09T16:40:33;2.55;;;0.80;;
59042;SDS011;44826;51.596;5.624;2022-09-09T16:42:59;1.00;;;0.70;;
59042;SDS011;44826;51.596;5.624;2022-09-09T16:45:25;1.67;;;0.63;;
59042;SDS011;44826;51.596;5.624;2022-09-09T16:47:50;1.27;;;0.68;;
59042;SDS011;44826;51.596;5.624;2022-09-09T16:50:16;2.38;;;0.70;;
59042;SDS011;44826;51.596;5.624;2022-09-09T16:52:41;1.50;;;0.90;;
59042;SDS011;44826;51.596;5.624;2022-09-09T16:55:06;2.45;;;0.95;;
59042;SDS011;44826;51.596;5.624;2022-09-09T16:57:32;3.67;;;1.30;;
59042;SDS011;44826;51.596;5.624;2022-09-09T16:59:57;1.85;;;0.90;;
59042;SDS011;44826;51.596;5.624;2022-09-09T17:02:24;2.67;;;1.10;;
59042;SDS011;44826;51.596;5.624;2022-09-09T17:04:50;2.33;;;1.05;;